Terminal Aerodrome Forecast
Issued by NWS

Home | Current Version | Previous Version | Text Only | Print | Product List | Glossary On
Versions: 1 2 3 4 5 6 7 8 9 10 11 12 13 14 15 16 17 18 19 20 21
000
FTUS43 KGRR 211900 AAA
TAFJXN
TAF AMD
KJXN 211931Z 2120/2218 18007KT 6SM HZ OVC050
     FM220300 15010KT 4SM BR OVC035=

USA.gov is the U.S. government's official web portal to all federal, state and local government web resources and services.